sensor_id;sensor_type;location;lat;lon;timestamp;temperature;humidity
20722;DHT22;10522;52.198;9.890;2023-03-14T00:02:19;11.50;99.90
20722;DHT22;10522;52.198;9.890;2023-03-14T00:04:44;11.50;99.90
20722;DHT22;10522;52.198;9.890;2023-03-14T00:07:11;11.50;99.90
20722;DHT22;10522;52.198;9.890;2023-03-14T00:09:37;11.50;99.90
20722;DHT22;10522;52.198;9.890;2023-03-14T00:12:03;11.60;99.90
20722;DHT22;10522;52.198;9.890;2023-03-14T00:14:29;11.60;99.90
20722;DHT22;10522;52.198;9.890;2023-03-14T00:16:55;11.60;99.90
20722;DHT22;10522;52.198;9.890;2023-03-14T00:19:20;11.70;99.90
20722;DHT22;10522;52.198;9.890;2023-03-14T00:21:46;11.60;99.90
20722;DHT22;10522;52.198;9.890;2023-03-14T00:24:12;11.60;99.90
20722;DHT22;10522;52.198;9.890;2023-03-14T00:26:38;11.50;99.90
20722;DHT22;10522;52.198;9.890;2023-03-14T00:29:03;11.50;99.90
20722;DHT22;10522;52.198;9.890;2023-03-14T00:31:29;11.60;99.90
20722;DHT22;10522;52.198;9.890;2023-03-14T00:33:54;11.50;99.90
20722;DHT22;10522;52.198;9.890;2023-03-14T00:36:21;11.50;99.90
20722;DHT22;10522;52.198;9.890;2023-03-14T00:38:48;11.60;99.90
20722;DHT22;10522;52.198;9.890;2023-03-14T00:41:20;11.40;99.90
20722;DHT22;10522;52.198;9.890;2023-03-14T00:43:47;11.40;99.90
20722;DHT22;10522;52.198;9.890;2023-03-14T00:46:13;11.50;99.90
20722;DHT22;10522;52.198;9.890;2023-03-14T00:48:39;11.60;99.90
20722;DHT22;10522;52.198;9.890;2023-03-14T00:51:05;11.60;99.90
20722;DHT22;10522;52.198;9.890;2023-03-14T00:53:35;11.80;99.90
20722;DHT22;10522;52.198;9.890;2023-03-14T00:56:07;11.80;99.90
20722;DHT22;10522;52.198;9.890;2023-03-14T00:58:33;11.90;99.90
20722;DHT22;10522;52.198;9.890;2023-03-14T01:00:59;11.90;99.90
20722;DHT22;10522;52.198;9.890;2023-03-14T01:03:24;12.00;99.90
20722;DHT22;10522;52.198;9.890;2023-03-14T01:05:50;11.90;99.90
20722;DHT22;10522;52.198;9.890;2023-03-14T01:08:17;11.90;99.90
20722;DHT22;10522;52.198;9.890;2023-03-14T01:10:42;11.90;99.90
20722;DHT22;10522;52.198;9.890;2023-03-14T01:13:09;11.90;99.90
20722;DHT22;10522;52.198;9.890;2023-03-14T01:15:36;11.80;99.90
20722;DHT22;10522;52.198;9.890;2023-03-14T01:18:02;11.80;99.90
20722;DHT22;10522;52.198;9.890;2023-03-14T01:20:28;11.70;99.90
20722;DHT22;10522;52.198;9.890;2023-03-14T01:22:53;11.60;99.90
20722;DHT22;10522;52.198;9.890;2023-03-14T01:25:19;11.70;99.90
20722;DHT22;10522;52.198;9.890;2023-03-14T01:27:45;11.60;99.90
20722;DHT22;10522;52.198;9.890;2023-03-14T01:30:12;11.60;99.90
20722;DHT22;10522;52.198;9.890;2023-03-14T01:32:38;11.60;99.90
20722;DHT22;10522;52.198;9.890;2023-03-14T01:35:04;11.60;99.90
20722;DHT22;10522;52.198;9.890;2023-03-14T01:37:30;11.50;99.90
20722;DHT22;10522;52.198;9.890;2023-03-14T01:39:56;11.50;99.90
20722;DHT22;10522;52.198;9.890;2023-03-14T01:42:21;11.30;99.90
20722;DHT22;10522;52.198;9.890;2023-03-14T01:44:51;11.40;99.90
20722;DHT22;10522;52.198;9.890;2023-03-14T01:47:17;11.50;99.90
20722;DHT22;10522;52.198;9.890;2023-03-14T01:49:43;11.60;99.90
20722;DHT22;10522;52.198;9.890;2023-03-14T01:52:19;11.60;99.90
20722;DHT22;10522;52.198;9.890;2023-03-14T01:54:50;11.40;99.90
20722;DHT22;10522;52.198;9.890;2023-03-14T01:57:27;11.40;99.90
20722;DHT22;10522;52.198;9.890;2023-03-14T02:00:01;11.40;99.90
20722;DHT22;10522;52.198;9.890;2023-03-14T02:02:29;11.30;99.90
20722;DHT22;10522;52.198;9.890;2023-03-14T02:04:56;11.50;99.90
20722;DHT22;10522;52.198;9.890;2023-03-14T02:09:51;11.40;99.90
20722;DHT22;10522;52.198;9.890;2023-03-14T02:12:18;11.40;99.90
20722;DHT22;10522;52.198;9.890;2023-03-14T02:14:45;11.50;99.90
20722;DHT22;10522;52.198;9.890;2023-03-14T02:17:16;11.30;99.90
20722;DHT22;10522;52.198;9.890;2023-03-14T02:22:19;11.20;99.90
20722;DHT22;10522;52.198;9.890;2023-03-14T02:27:48;11.20;99.90
20722;DHT22;10522;52.198;9.890;2023-03-14T02:30:15;11.30;99.90
20722;DHT22;10522;52.198;9.890;2023-03-14T02:32:44;11.20;99.90
20722;DHT22;10522;52.198;9.890;2023-03-14T02:35:24;11.20;99.90
20722;DHT22;10522;52.198;9.890;2023-03-14T02:37:57;11.30;99.90
20722;DHT22;10522;52.198;9.890;2023-03-14T02:40:25;11.20;99.90
20722;DHT22;10522;52.198;9.890;2023-03-14T02:42:51;11.20;99.90
20722;DHT22;10522;52.198;9.890;2023-03-14T02:47:46;11.20;99.90
20722;DHT22;10522;52.198;9.890;2023-03-14T02:50:17;11.00;99.90
20722;DHT22;10522;52.198;9.890;2023-03-14T02:52:44;11.00;99.90
20722;DHT22;10522;52.198;9.890;2023-03-14T02:55:10;11.00;99.90
20722;DHT22;10522;52.198;9.890;2023-03-14T02:57:35;11.00;99.90
20722;DHT22;10522;52.198;9.890;2023-03-14T03:00:01;11.00;99.90
20722;DHT22;10522;52.198;9.890;2023-03-14T03:02:30;11.10;99.90
20722;DHT22;10522;52.198;9.890;2023-03-14T03:04:55;11.10;99.90
20722;DHT22;10522;52.198;9.890;2023-03-14T03:07:21;11.30;99.90
20722;DHT22;10522;52.198;9.890;2023-03-14T03:09:46;11.20;99.90
20722;DHT22;10522;52.198;9.890;2023-03-14T03:12:12;11.20;99.90
20722;DHT22;10522;52.198;9.890;2023-03-14T03:14:38;11.20;99.90
20722;DHT22;10522;52.198;9.890;2023-03-14T03:17:06;11.40;99.90
20722;DHT22;10522;52.198;9.890;2023-03-14T03:19:33;11.20;99.90
20722;DHT22;10522;52.198;9.890;2023-03-14T03:21:59;11.10;99.90
20722;DHT22;10522;52.198;9.890;2023-03-14T03:24:26;11.10;99.90
20722;DHT22;10522;52.198;9.890;2023-03-14T03:26:51;11.20;99.90
20722;DHT22;10522;52.198;9.890;2023-03-14T03:29:17;11.20;99.90
20722;DHT22;10522;52.198;9.890;2023-03-14T03:31:42;11.20;99.90
20722;DHT22;10522;52.198;9.890;2023-03-14T03:34:11;11.20;99.90
20722;DHT22;10522;52.198;9.890;2023-03-14T03:36:36;11.20;99.90
20722;DHT22;10522;52.198;9.890;2023-03-14T03:39:02;11.20;99.90
20722;DHT22;10522;52.198;9.890;2023-03-14T03:41:29;11.20;99.90
20722;DHT22;10522;52.198;9.890;2023-03-14T03:43:55;11.10;99.90
20722;DHT22;10522;52.198;9.890;2023-03-14T03:46:21;10.90;99.90
20722;DHT22;10522;52.198;9.890;2023-03-14T03:48:46;11.00;99.90
20722;DHT22;10522;52.198;9.890;2023-03-14T03:51:16;10.90;99.90
20722;DHT22;10522;52.198;9.890;2023-03-14T03:53:42;10.90;99.90
20722;DHT22;10522;52.198;9.890;2023-03-14T03:56:08;10.90;99.90
20722;DHT22;10522;52.198;9.890;2023-03-14T03:58:34;10.80;99.90
20722;DHT22;10522;52.198;9.890;2023-03-14T04:01:00;10.70;99.90
20722;DHT22;10522;52.198;9.890;2023-03-14T04:03:26;10.60;99.90
20722;DHT22;10522;52.198;9.890;2023-03-14T04:06:05;10.70;99.90
20722;DHT22;10522;52.198;9.890;2023-03-14T04:08:31;10.50;99.90
20722;DHT22;10522;52.198;9.890;2023-03-14T04:10:58;10.30;99.90
20722;DHT22;10522;52.198;9.890;2023-03-14T04:13:25;9.90;99.90
20722;DHT22;10522;52.198;9.890;2023-03-14T04:15:51;9.60;99.90
20722;DHT22;10522;52.198;9.890;2023-03-14T04:18:17;9.50;99.90
20722;DHT22;10522;52.198;9.890;2023-03-14T04:20:43;9.40;99.90
20722;DHT22;10522;52.198;9.890;2023-03-14T04:23:08;9.30;99.90
20722;DHT22;10522;52.198;9.890;2023-03-14T04:25:34;9.20;99.90
20722;DHT22;10522;52.198;9.890;2023-03-14T04:28:00;9.20;99.90
20722;DHT22;10522;52.198;9.890;2023-03-14T04:30:26;9.20;99.90
20722;DHT22;10522;52.198;9.890;2023-03-14T04:32:51;9.20;99.90
20722;DHT22;10522;52.198;9.890;2023-03-14T04:35:17;9.10;99.90
20722;DHT22;10522;52.198;9.890;2023-03-14T04:37:42;9.30;99.90
20722;DHT22;10522;52.198;9.890;2023-03-14T04:40:10;9.40;99.90
20722;DHT22;10522;52.198;9.890;2023-03-14T04:42:35;9.40;99.90
20722;DHT22;10522;52.198;9.890;2023-03-14T04:45:01;9.60;99.90
20722;DHT22;10522;52.198;9.890;2023-03-14T04:47:27;9.60;99.90
20722;DHT22;10522;52.198;9.890;2023-03-14T04:49:53;9.50;99.90
20722;DHT22;10522;52.198;9.890;2023-03-14T04:52:18;9.50;99.90
20722;DHT22;10522;52.198;9.890;2023-03-14T04:54:44;9.50;99.90
20722;DHT22;10522;52.198;9.890;2023-03-14T04:57:10;9.40;99.90
20722;DHT22;10522;52.198;9.890;2023-03-14T04:59:35;9.40;99.90
20722;DHT22;10522;52.198;9.890;2023-03-14T05:02:01;9.30;99.90
20722;DHT22;10522;52.198;9.890;2023-03-14T05:04:26;9.20;99.90
20722;DHT22;10522;52.198;9.890;2023-03-14T05:06:52;9.30;99.90
20722;DHT22;10522;52.198;9.890;2023-03-14T05:09:17;9.30;99.90
20722;DHT22;10522;52.198;9.890;2023-03-14T05:11:43;9.30;99.90
20722;DHT22;10522;52.198;9.890;2023-03-14T05:14:09;9.30;99.90
20722;DHT22;10522;52.198;9.890;2023-03-14T05:16:34;9.40;99.90
20722;DHT22;10522;52.198;9.890;2023-03-14T05:19:00;9.40;99.90
20722;DHT22;10522;52.198;9.890;2023-03-14T05:21:27;9.30;99.90
20722;DHT22;10522;52.198;9.890;2023-03-14T05:23:52;9.30;99.90
20722;DHT22;10522;52.198;9.890;2023-03-14T05:26:18;9.30;99.90
20722;DHT22;10522;52.198;9.890;2023-03-14T05:28:44;9.30;99.90
20722;DHT22;10522;52.198;9.890;2023-03-14T05:31:09;9.40;99.90
20722;DHT22;10522;52.198;9.890;2023-03-14T05:33:35;9.30;99.90
20722;DHT22;10522;52.198;9.890;2023-03-14T05:36:01;9.30;99.90
20722;DHT22;10522;52.198;9.890;2023-03-14T05:38:26;9.20;99.90
20722;DHT22;10522;52.198;9.890;2023-03-14T05:40:52;9.30;99.90
20722;DHT22;10522;52.198;9.890;2023-03-14T05:43:18;9.30;99.90
20722;DHT22;10522;52.198;9.890;2023-03-14T05:45:43;9.30;99.90
20722;DHT22;10522;52.198;9.890;2023-03-14T05:48:09;9.20;99.90
20722;DHT22;10522;52.198;9.890;2023-03-14T05:50:35;9.20;99.90
20722;DHT22;10522;52.198;9.890;2023-03-14T05:53:00;9.10;99.90
20722;DHT22;10522;52.198;9.890;2023-03-14T05:55:26;9.10;99.90
20722;DHT22;10522;52.198;9.890;2023-03-14T05:57:53;9.10;99.90
20722;DHT22;10522;52.198;9.890;2023-03-14T06:00:19;9.10;99.90
20722;DHT22;10522;52.198;9.890;2023-03-14T06:02:45;9.10;99.90
20722;DHT22;10522;52.198;9.890;2023-03-14T06:05:10;9.00;99.90
20722;DHT22;10522;52.198;9.890;2023-03-14T06:07:36;8.90;99.90
20722;DHT22;10522;52.198;9.890;2023-03-14T06:10:03;8.90;99.90
20722;DHT22;10522;52.198;9.890;2023-03-14T06:12:28;8.80;99.90
20722;DHT22;10522;52.198;9.890;2023-03-14T06:14:54;8.80;99.90
20722;DHT22;10522;52.198;9.890;2023-03-14T06:17:20;8.90;99.90
20722;DHT22;10522;52.198;9.890;2023-03-14T06:19:45;9.00;99.90
20722;DHT22;10522;52.198;9.890;2023-03-14T06:22:11;9.10;99.90
20722;DHT22;10522;52.198;9.890;2023-03-14T06:24:36;9.30;99.90
20722;DHT22;10522;52.198;9.890;2023-03-14T06:27:02;9.20;99.90
20722;DHT22;10522;52.198;9.890;2023-03-14T06:29:28;9.20;99.90
20722;DHT22;10522;52.198;9.890;2023-03-14T06:31:54;9.30;99.90
20722;DHT22;10522;52.198;9.890;2023-03-14T06:34:20;9.30;99.90
20722;DHT22;10522;52.198;9.890;2023-03-14T06:36:46;9.40;99.90
20722;DHT22;10522;52.198;9.890;2023-03-14T06:39:11;9.50;99.90
20722;DHT22;10522;52.198;9.890;2023-03-14T06:41:37;9.60;99.90
20722;DHT22;10522;52.198;9.890;2023-03-14T06:44:03;9.70;99.90
20722;DHT22;10522;52.198;9.890;2023-03-14T06:46:29;9.80;99.90
20722;DHT22;10522;52.198;9.890;2023-03-14T06:48:54;9.90;99.90
20722;DHT22;10522;52.198;9.890;2023-03-14T06:51:20;9.80;99.90
20722;DHT22;10522;52.198;9.890;2023-03-14T06:53:46;9.90;99.90
20722;DHT22;10522;52.198;9.890;2023-03-14T06:56:11;9.70;99.90
20722;DHT22;10522;52.198;9.890;2023-03-14T06:58:37;9.60;99.90
20722;DHT22;10522;52.198;9.890;2023-03-14T07:01:03;9.50;99.90
20722;DHT22;10522;52.198;9.890;2023-03-14T07:03:28;9.50;99.90
20722;DHT22;10522;52.198;9.890;2023-03-14T07:05:54;9.50;99.90
20722;DHT22;10522;52.198;9.890;2023-03-14T07:08:20;9.50;99.90
20722;DHT22;10522;52.198;9.890;2023-03-14T07:10:46;9.70;99.90
20722;DHT22;10522;52.198;9.890;2023-03-14T07:13:12;9.60;99.90
20722;DHT22;10522;52.198;9.890;2023-03-14T07:15:37;9.60;99.90
20722;DHT22;10522;52.198;9.890;2023-03-14T07:18:03;9.60;99.90
20722;DHT22;10522;52.198;9.890;2023-03-14T07:20:29;9.50;99.90
20722;DHT22;10522;52.198;9.890;2023-03-14T07:22:58;9.60;99.90
20722;DHT22;10522;52.198;9.890;2023-03-14T07:25:25;9.80;99.90
20722;DHT22;10522;52.198;9.890;2023-03-14T07:27:51;9.80;99.90
20722;DHT22;10522;52.198;9.890;2023-03-14T07:30:16;9.70;99.90
20722;DHT22;10522;52.198;9.890;2023-03-14T07:32:42;9.60;99.90
20722;DHT22;10522;52.198;9.890;2023-03-14T07:35:08;9.60;99.90
20722;DHT22;10522;52.198;9.890;2023-03-14T07:37:33;9.60;99.90
20722;DHT22;10522;52.198;9.890;2023-03-14T07:39:59;9.50;99.90
20722;DHT22;10522;52.198;9.890;2023-03-14T07:42:25;9.50;99.90
20722;DHT22;10522;52.198;9.890;2023-03-14T07:44:50;9.60;99.90
20722;DHT22;10522;52.198;9.890;2023-03-14T07:47:16;9.60;99.90
20722;DHT22;10522;52.198;9.890;2023-03-14T07:49:41;9.60;99.90
20722;DHT22;10522;52.198;9.890;2023-03-14T07:52:07;9.70;99.90
20722;DHT22;10522;52.198;9.890;2023-03-14T07:54:32;9.80;99.90
20722;DHT22;10522;52.198;9.890;2023-03-14T07:56:58;9.80;99.90
20722;DHT22;10522;52.198;9.890;2023-03-14T07:59:26;9.90;99.90
20722;DHT22;10522;52.198;9.890;2023-03-14T08:01:52;9.90;99.90
20722;DHT22;10522;52.198;9.890;2023-03-14T08:04:17;10.10;99.90
20722;DHT22;10522;52.198;9.890;2023-03-14T08:06:43;10.30;99.90
20722;DHT22;10522;52.198;9.890;2023-03-14T08:09:09;10.40;99.90
20722;DHT22;10522;52.198;9.890;2023-03-14T08:11:34;10.60;99.90
20722;DHT22;10522;52.198;9.890;2023-03-14T08:14:00;10.60;99.90
20722;DHT22;10522;52.198;9.890;2023-03-14T08:16:25;10.80;99.90
20722;DHT22;10522;52.198;9.890;2023-03-14T08:18:51;10.70;99.90
20722;DHT22;10522;52.198;9.890;2023-03-14T08:21:17;10.80;99.90
20722;DHT22;10522;52.198;9.890;2023-03-14T08:23:42;10.90;99.90
20722;DHT22;10522;52.198;9.890;2023-03-14T08:26:08;10.80;99.90
20722;DHT22;10522;52.198;9.890;2023-03-14T08:28:33;10.80;99.90
20722;DHT22;10522;52.198;9.890;2023-03-14T08:31:00;10.90;99.90
20722;DHT22;10522;52.198;9.890;2023-03-14T08:33:27;10.80;99.90
20722;DHT22;10522;52.198;9.890;2023-03-14T08:35:58;10.70;99.90
20722;DHT22;10522;52.198;9.890;2023-03-14T08:38:25;10.50;99.90
20722;DHT22;10522;52.198;9.890;2023-03-14T08:41:01;10.30;99.90
20722;DHT22;10522;52.198;9.890;2023-03-14T08:43:27;10.50;99.90
20722;DHT22;10522;52.198;9.890;2023-03-14T08:45:56;10.50;99.90
20722;DHT22;10522;52.198;9.890;2023-03-14T08:48:22;10.50;99.90
20722;DHT22;10522;52.198;9.890;2023-03-14T08:50:48;10.40;99.90
20722;DHT22;10522;52.198;9.890;2023-03-14T08:53:14;10.50;99.90
20722;DHT22;10522;52.198;9.890;2023-03-14T08:55:39;10.40;99.90
20722;DHT22;10522;52.198;9.890;2023-03-14T08:58:05;10.60;99.90
20722;DHT22;10522;52.198;9.890;2023-03-14T09:00:30;10.40;99.90
20722;DHT22;10522;52.198;9.890;2023-03-14T09:02:56;10.60;99.90
20722;DHT22;10522;52.198;9.890;2023-03-14T09:05:21;10.80;99.90
20722;DHT22;10522;52.198;9.890;2023-03-14T09:07:47;10.70;99.90
20722;DHT22;10522;52.198;9.890;2023-03-14T09:10:13;10.90;99.90
20722;DHT22;10522;52.198;9.890;2023-03-14T09:12:38;11.10;99.90
20722;DHT22;10522;52.198;9.890;2023-03-14T09:15:04;11.00;99.90
20722;DHT22;10522;52.198;9.890;2023-03-14T09:17:30;11.00;99.90
20722;DHT22;10522;52.198;9.890;2023-03-14T09:19:56;10.90;99.90
20722;DHT22;10522;52.198;9.890;2023-03-14T09:22:22;11.10;99.90
20722;DHT22;10522;52.198;9.890;2023-03-14T09:24:48;11.20;99.90
20722;DHT22;10522;52.198;9.890;2023-03-14T09:27:13;11.20;99.90
20722;DHT22;10522;52.198;9.890;2023-03-14T09:29:39;11.30;99.90
20722;DHT22;10522;52.198;9.890;2023-03-14T09:32:04;11.40;99.90
20722;DHT22;10522;52.198;9.890;2023-03-14T09:34:30;11.40;99.90
20722;DHT22;10522;52.198;9.890;2023-03-14T09:36:56;11.30;99.90
20722;DHT22;10522;52.198;9.890;2023-03-14T09:39:22;11.50;99.90
20722;DHT22;10522;52.198;9.890;2023-03-14T09:41:49;11.80;99.90
20722;DHT22;10522;52.198;9.890;2023-03-14T09:44:27;12.20;99.90
20722;DHT22;10522;52.198;9.890;2023-03-14T09:46:55;12.30;99.90
20722;DHT22;10522;52.198;9.890;2023-03-14T09:49:34;12.40;99.90
20722;DHT22;10522;52.198;9.890;2023-03-14T09:52:04;12.40;99.90
20722;DHT22;10522;52.198;9.890;2023-03-14T09:54:39;12.20;99.90
20722;DHT22;10522;52.198;9.890;2023-03-14T09:57:14;12.20;99.90
20722;DHT22;10522;52.198;9.890;2023-03-14T09:59:43;12.10;99.90
20722;DHT22;10522;52.198;9.890;2023-03-14T10:02:26;11.90;99.90
20722;DHT22;10522;52.198;9.890;2023-03-14T10:04:54;11.70;99.90
20722;DHT22;10522;52.198;9.890;2023-03-14T10:07:31;11.50;99.90
20722;DHT22;10522;52.198;9.890;2023-03-14T10:09:57;11.60;99.90
20722;DHT22;10522;52.198;9.890;2023-03-14T10:12:35;11.40;99.90
20722;DHT22;10522;52.198;9.890;2023-03-14T10:15:12;11.60;99.90
20722;DHT22;10522;52.198;9.890;2023-03-14T10:17:50;12.00;99.90
20722;DHT22;10522;52.198;9.890;2023-03-14T10:23:05;12.80;99.90
20722;DHT22;10522;52.198;9.890;2023-03-14T10:25:36;12.50;99.90
20722;DHT22;10522;52.198;9.890;2023-03-14T10:28:03;12.20;99.90
20722;DHT22;10522;52.198;9.890;2023-03-14T10:30:38;12.20;99.90
20722;DHT22;10522;52.198;9.890;2023-03-14T10:33:21;12.30;99.90
20722;DHT22;10522;52.198;9.890;2023-03-14T10:35:57;12.40;99.90
20722;DHT22;10522;52.198;9.890;2023-03-14T10:38:25;12.30;99.90
20722;DHT22;10522;52.198;9.890;2023-03-14T10:40:53;12.30;99.90
20722;DHT22;10522;52.198;9.890;2023-03-14T10:43:23;12.20;99.90
20722;DHT22;10522;52.198;9.890;2023-03-14T10:45:55;12.00;99.90
20722;DHT22;10522;52.198;9.890;2023-03-14T10:48:38;12.10;99.90
20722;DHT22;10522;52.198;9.890;2023-03-14T10:53:42;12.40;99.90
20722;DHT22;10522;52.198;9.890;2023-03-14T10:56:12;12.60;99.90
20722;DHT22;10522;52.198;9.890;2023-03-14T10:58:45;12.60;99.90
20722;DHT22;10522;52.198;9.890;2023-03-14T11:04:01;12.30;99.90
20722;DHT22;10522;52.198;9.890;2023-03-14T11:15:32;12.20;99.90
20722;DHT22;10522;52.198;9.890;2023-03-14T11:18:44;12.50;99.90
20722;DHT22;10522;52.198;9.890;2023-03-14T11:27:02;13.10;99.90
20722;DHT22;10522;52.198;9.890;2023-03-14T11:29:40;13.20;99.90
20722;DHT22;10522;52.198;9.890;2023-03-14T11:32:31;13.20;99.90
20722;DHT22;10522;52.198;9.890;2023-03-14T11:35:04;13.10;99.90
20722;DHT22;10522;52.198;9.890;2023-03-14T11:37:36;12.90;99.90
20722;DHT22;10522;52.198;9.890;2023-03-14T11:42:43;12.50;99.90
20722;DHT22;10522;52.198;9.890;2023-03-14T11:45:18;12.30;99.90
20722;DHT22;10522;52.198;9.890;2023-03-14T11:47:48;11.20;99.90
20722;DHT22;10522;52.198;9.890;2023-03-14T11:50:19;8.20;99.90
20722;DHT22;10522;52.198;9.890;2023-03-14T11:52:56;7.00;99.90
20722;DHT22;10522;52.198;9.890;2023-03-14T11:55:27;6.50;99.90
20722;DHT22;10522;52.198;9.890;2023-03-14T11:58:21;6.40;99.90
20722;DHT22;10522;52.198;9.890;2023-03-14T12:00:49;6.30;99.90
20722;DHT22;10522;52.198;9.890;2023-03-14T12:06:20;6.20;99.90
20722;DHT22;10522;52.198;9.890;2023-03-14T12:09:03;6.20;99.90
20722;DHT22;10522;52.198;9.890;2023-03-14T12:11:47;6.30;99.90
20722;DHT22;10522;52.198;9.890;2023-03-14T12:14:32;6.30;99.90
20722;DHT22;10522;52.198;9.890;2023-03-14T12:17:21;6.20;99.90
20722;DHT22;10522;52.198;9.890;2023-03-14T12:19:48;6.00;99.90
20722;DHT22;10522;52.198;9.890;2023-03-14T12:22:27;5.90;99.90
20722;DHT22;10522;52.198;9.890;2023-03-14T12:25:12;5.80;99.90
20722;DHT22;10522;52.198;9.890;2023-03-14T12:30:26;5.60;99.90
20722;DHT22;10522;52.198;9.890;2023-03-14T12:33:14;5.30;99.90
20722;DHT22;10522;52.198;9.890;2023-03-14T12:35:46;4.80;99.90
20722;DHT22;10522;52.198;9.890;2023-03-14T12:41:01;4.70;99.90
20722;DHT22;10522;52.198;9.890;2023-03-14T12:43:30;4.50;99.90
20722;DHT22;10522;52.198;9.890;2023-03-14T12:48:45;4.50;99.90
20722;DHT22;10522;52.198;9.890;2023-03-14T12:51:29;4.40;99.90
20722;DHT22;10522;52.198;9.890;2023-03-14T12:54:21;4.40;99.90
20722;DHT22;10522;52.198;9.890;2023-03-14T12:59:56;4.30;99.90
20722;DHT22;10522;52.198;9.890;2023-03-14T13:07:32;4.30;99.90
20722;DHT22;10522;52.198;9.890;2023-03-14T13:12:46;4.20;99.90
20722;DHT22;10522;52.198;9.890;2023-03-14T13:17:48;4.20;99.90
20722;DHT22;10522;52.198;9.890;2023-03-14T13:20:36;4.30;99.90
20722;DHT22;10522;52.198;9.890;2023-03-14T13:23:03;4.20;99.90
20722;DHT22;10522;52.198;9.890;2023-03-14T13:25:33;4.30;99.90
20722;DHT22;10522;52.198;9.890;2023-03-14T13:28:01;4.40;99.90
20722;DHT22;10522;52.198;9.890;2023-03-14T13:30:40;4.80;99.90
20722;DHT22;10522;52.198;9.890;2023-03-14T13:33:06;4.80;99.90
20722;DHT22;10522;52.198;9.890;2023-03-14T13:35:41;4.90;99.90
20722;DHT22;10522;52.198;9.890;2023-03-14T13:38:19;4.90;99.90
20722;DHT22;10522;52.198;9.890;2023-03-14T13:40:46;4.70;99.90
20722;DHT22;10522;52.198;9.890;2023-03-14T13:46:11;4.80;99.90
20722;DHT22;10522;52.198;9.890;2023-03-14T13:48:47;4.70;99.90
20722;DHT22;10522;52.198;9.890;2023-03-14T13:51:14;4.80;99.90
20722;DHT22;10522;52.198;9.890;2023-03-14T13:53:46;4.70;99.90
20722;DHT22;10522;52.198;9.890;2023-03-14T13:56:12;4.80;99.90
20722;DHT22;10522;52.198;9.890;2023-03-14T13:58:40;4.80;99.90
20722;DHT22;10522;52.198;9.890;2023-03-14T14:01:13;4.80;99.90
20722;DHT22;10522;52.198;9.890;2023-03-14T14:03:41;4.90;99.90
20722;DHT22;10522;52.198;9.890;2023-03-14T14:08:58;5.00;99.90
20722;DHT22;10522;52.198;9.890;2023-03-14T14:11:43;5.00;99.90
20722;DHT22;10522;52.198;9.890;2023-03-14T14:14:27;5.00;99.90
20722;DHT22;10522;52.198;9.890;2023-03-14T14:16:54;5.00;99.90
20722;DHT22;10522;52.198;9.890;2023-03-14T14:19:22;5.00;99.90
20722;DHT22;10522;52.198;9.890;2023-03-14T14:21:49;5.00;99.90
20722;DHT22;10522;52.198;9.890;2023-03-14T14:24:16;5.20;99.90
20722;DHT22;10522;52.198;9.890;2023-03-14T14:26:50;5.00;99.90
20722;DHT22;10522;52.198;9.890;2023-03-14T14:29:31;5.10;99.90
20722;DHT22;10522;52.198;9.890;2023-03-14T14:34:43;5.00;99.90
20722;DHT22;10522;52.198;9.890;2023-03-14T14:37:40;4.80;99.90
20722;DHT22;10522;52.198;9.890;2023-03-14T14:40:09;4.60;99.90
20722;DHT22;10522;52.198;9.890;2023-03-14T14:42:40;4.50;99.90
20722;DHT22;10522;52.198;9.890;2023-03-14T14:45:11;4.40;99.90
20722;DHT22;10522;52.198;9.890;2023-03-14T14:47:49;4.40;99.90
20722;DHT22;10522;52.198;9.890;2023-03-14T14:50:32;4.30;99.90
20722;DHT22;10522;52.198;9.890;2023-03-14T14:53:01;4.20;99.90
20722;DHT22;10522;52.198;9.890;2023-03-14T14:55:39;4.40;99.90
20722;DHT22;10522;52.198;9.890;2023-03-14T14:58:20;4.60;99.90
20722;DHT22;10522;52.198;9.890;2023-03-14T15:00:58;4.60;99.90
20722;DHT22;10522;52.198;9.890;2023-03-14T15:03:28;4.60;99.90
20722;DHT22;10522;52.198;9.890;2023-03-14T15:05:55;4.60;99.90
20722;DHT22;10522;52.198;9.890;2023-03-14T15:08:21;4.60;99.90
20722;DHT22;10522;52.198;9.890;2023-03-14T15:10:46;4.50;99.90
20722;DHT22;10522;52.198;9.890;2023-03-14T15:13:12;4.60;99.90
20722;DHT22;10522;52.198;9.890;2023-03-14T15:15:38;4.60;99.90
20722;DHT22;10522;52.198;9.890;2023-03-14T15:18:12;4.70;99.90
20722;DHT22;10522;52.198;9.890;2023-03-14T15:20:39;4.70;99.90
20722;DHT22;10522;52.198;9.890;2023-03-14T15:23:13;4.80;99.90
20722;DHT22;10522;52.198;9.890;2023-03-14T15:25:39;4.80;99.90
20722;DHT22;10522;52.198;9.890;2023-03-14T15:28:19;4.90;99.90
20722;DHT22;10522;52.198;9.890;2023-03-14T15:30:47;5.00;99.90
20722;DHT22;10522;52.198;9.890;2023-03-14T15:33:14;5.00;99.90
20722;DHT22;10522;52.198;9.890;2023-03-14T15:35:40;5.10;99.90
20722;DHT22;10522;52.198;9.890;2023-03-14T15:38:13;5.10;99.90
20722;DHT22;10522;52.198;9.890;2023-03-14T15:40:40;5.10;99.90
20722;DHT22;10522;52.198;9.890;2023-03-14T15:43:06;5.10;99.90
20722;DHT22;10522;52.198;9.890;2023-03-14T15:45:32;5.20;99.90
20722;DHT22;10522;52.198;9.890;2023-03-14T15:47:57;5.20;99.90
20722;DHT22;10522;52.198;9.890;2023-03-14T15:50:23;5.30;99.90
20722;DHT22;10522;52.198;9.890;2023-03-14T15:52:51;5.30;99.90
20722;DHT22;10522;52.198;9.890;2023-03-14T15:55:17;5.30;99.90
20722;DHT22;10522;52.198;9.890;2023-03-14T15:57:43;5.20;99.90
20722;DHT22;10522;52.198;9.890;2023-03-14T16:00:13;5.10;99.90
20722;DHT22;10522;52.198;9.890;2023-03-14T16:02:40;5.00;99.90
20722;DHT22;10522;52.198;9.890;2023-03-14T16:05:08;5.00;99.90
20722;DHT22;10522;52.198;9.890;2023-03-14T16:07:34;5.00;99.90
20722;DHT22;10522;52.198;9.890;2023-03-14T16:09:59;5.00;99.90
20722;DHT22;10522;52.198;9.890;2023-03-14T16:12:25;5.00;99.90
20722;DHT22;10522;52.198;9.890;2023-03-14T16:14:50;5.00;99.90
20722;DHT22;10522;52.198;9.890;2023-03-14T16:17:16;4.90;99.90
20722;DHT22;10522;52.198;9.890;2023-03-14T16:19:41;4.90;99.90
20722;DHT22;10522;52.198;9.890;2023-03-14T16:22:07;4.90;99.90
20722;DHT22;10522;52.198;9.890;2023-03-14T16:24:33;5.00;99.90
20722;DHT22;10522;52.198;9.890;2023-03-14T16:26:58;5.00;99.90
20722;DHT22;10522;52.198;9.890;2023-03-14T16:29:24;5.00;99.90
20722;DHT22;10522;52.198;9.890;2023-03-14T16:31:49;5.00;99.90
20722;DHT22;10522;52.198;9.890;2023-03-14T16:34:15;5.10;99.90
20722;DHT22;10522;52.198;9.890;2023-03-14T16:36:41;5.10;99.90
20722;DHT22;10522;52.198;9.890;2023-03-14T16:39:06;5.10;99.90
20722;DHT22;10522;52.198;9.890;2023-03-14T16:41:32;5.20;99.90
20722;DHT22;10522;52.198;9.890;2023-03-14T16:44:00;5.40;99.90
20722;DHT22;10522;52.198;9.890;2023-03-14T16:46:26;5.50;99.90
20722;DHT22;10522;52.198;9.890;2023-03-14T16:48:53;5.50;99.90
20722;DHT22;10522;52.198;9.890;2023-03-14T16:51:19;5.70;99.90
20722;DHT22;10522;52.198;9.890;2023-03-14T16:53:46;5.40;99.90
20722;DHT22;10522;52.198;9.890;2023-03-14T16:56:12;5.30;99.90
20722;DHT22;10522;52.198;9.890;2023-03-14T16:58:38;5.20;99.90